Historyczne dane pomiarowe

Dodano dane terminowe – wersja testowa.

Dane z okresu 1951-2019

Wersja bazy: 1.34 [2019-03-16, lista zmian], aktualizacja planowana na 2019-04-15

Dane meteo z obszaru Polski uzyskane na podstawie danych udostępnionych przez Instytut Meteorologii i Gospodarki Wodnej – Państwowy Instytut Badawczy.

 

Wybierz Datę:    

       

TemperaturaWilgotnośćWiatrCiśnienieOpadyŚniegCzas trwania zjawisk
 Stacja t tx tn tng RH VA  wxwx mslp ppp RRR   cm mm wxwxwxwxwxwxwx
1961-08-14 14.9 19.4 9.2- 85.0- 3.3 2.0---- 0.0------------
1961-08-13 14.0 18.1 8.6- 97.3- 8.0 3.3---- 5.1------------
1961-08-12 18.5 21.5 16.6- 88.8- 8.0 0.3---- 13.0------------
1961-08-11 23.6 31.7 17.5- 79.0- 2.0 2.0---- 0.0------------
1961-08-10 22.6 27.3 18.0- 83.5- 4.3 1.3---- 1.1------------
1961-08-09 22.3 29.0 15.0- 68.5- 1.3 0.7---- 13.6------------
1961-08-08 19.0 23.7 15.6- 73.3- 8.0 0.3---- 0.0------------
1961-08-07 23.5 30.4 15.5- 69.0- 1.7 3.7---- 0.6------------
1961-08-06 22.1 29.7 11.5- 69.3- 0.3 1.0---- 0.0------------
1961-08-05 17.3 23.4 12.5- 78.3- 3.7 2.7---- 0.0------------
1961-08-04 16.2 21.2 10.2- 77.5- 6.7 1.7---- 0.0------------
1961-08-03 20.0 27.3 11.3- 67.3- 4.3 3.3---- 7.8------------
1961-08-02 18.5 25.3 7.5- 74.5- 0.7 0.7---- 0.0------------
1961-08-01 15.7 20.3 10.2- 77.0- 4.3 3.0---- 0.0------------
1961-07-31 14.4 18.6 12.1- 84.8- 4.7 3.7---- 1.0------------
1961-07-30 14.6 18.6 12.2- 99.5- 8.0 2.0---- 33.8------------
1961-07-29 15.5 18.6 13.3- 92.3- 7.0 2.0---- 10.0------------
1961-07-28 20.7 29.2 15.2- 80.5- 7.0 1.3---- 1.8------------
1961-07-27 21.0 27.6 11.2- 66.8- 4.7 4.0---- 0.0------------
1961-07-26 16.4 20.3 11.5- 73.0- 8.0 3.3---- 0.0------------
1961-07-25 15.4 20.2 10.2- 73.3- 7.0 4.3---- 0.0------------
1961-07-24 15.7 21.0 9.1- 69.8- 5.7 3.0---- 0.0------------
1961-07-23 15.0 21.2 9.1- 76.0- 5.3 3.3---- 0.0------------
1961-07-22 14.4 20.5 11.2- 90.0- 5.7 4.7---- 0.0------------
1961-07-21 15.6 22.7 12.2- 85.8- 5.3 3.7---- 0.2------------
1961-07-20 18.0 24.1 7.1- 73.8- 3.3 1.0---- 0.2------------
1961-07-19 16.5 23.8 6.7- 78.8- 4.0 2.0---- 0.0------------
1961-07-18 14.9 20.5 7.7- 78.8- 3.7 4.3---- 0.0------------
1961-07-17 16.0 23.0 9.1- 82.5- 7.0 2.0---- 3.9------------
1961-07-16 18.9 27.0 9.0- 72.5- 7.0 6.7---- 0.0------------
1961-07-15 17.8 25.5 8.0- 73.3- 3.7 2.7---- 0.0------------
1961-07-14 16.7 22.8 14.7- 70.5- 6.7 5.3---- 0.0------------
1961-07-13 23.0 29.5 12.2- 68.5- 2.0 2.3---- 0.2------------
1961-07-12 19.3 25.3 8.1- 71.3- 4.0 1.7---- 0.0------------
1961-07-11 14.9 21.5 8.6- 71.8- 4.0 3.3---- 0.0------------
1961-07-10 13.0 18.9 11.1- 85.5- 6.3 3.0---- 3.8------------
1961-07-09 16.8 23.5 7.1- 69.8- 4.0 5.0---- 0.9------------
1961-07-08 14.9 20.5 8.3- 72.0- 3.3 1.7---- 0.0------------
1961-07-07 13.1 18.7 7.6- 85.5- 6.0 2.7---- 3.6------------
1961-07-06 13.9 18.8 7.9- 68.3- 3.0 3.7---- 0.0------------
1961-07-05 16.1 20.3 14.3- 69.5- 7.0 3.7---- 0.0------------
1961-07-04 21.6 30.8 14.6- 73.8- 3.0 2.3---- 14.1------------
1961-07-03 23.5 30.7 11.5- 53.8- 0.0 1.7---- 0.0------------
1961-07-02 21.3 28.3 10.9- 59.0- 0.0 1.3---- 0.0------------
1961-07-01 19.2 25.0 11.7- 69.3- 0.7 1.3---- 0.0------------
1961-06-30 18.2 24.5 7.2- 75.3- 0.3 2.3---- 0.0------------
1961-06-29 14.8 19.9 7.9- 77.5- 3.3 3.3---- 0.0------------
1961-06-28 15.2 23.2 11.7- 87.8- 5.7 2.0---- 1.5------------
1961-06-27 24.2 32.0 15.5- 64.5- 3.3 3.0---- 5.8------------
1961-06-26 21.7 30.3 13.1- 77.3- 3.3 2.0---- 5.0------------
1961-06-25 21.3 28.5 9.4- 64.0- 2.3 4.0---- 0.0------------
1961-06-24 18.0 24.9 10.6- 67.0- 3.3 3.7---- 0.0------------
1961-06-23 15.7 22.0 11.7- 86.3- 5.3 1.7---- 4.9------------
1961-06-22 15.3 21.5 9.1- 67.0- 3.0 1.3---- 0.0------------
1961-06-21 17.2 22.5 4.9- 58.5- 2.3 2.3---- 0.0------------
1961-06-20 14.9 21.0 8.2- 63.5- 1.7 3.3---- 0.0------------
1961-06-19 19.0 23.0 13.1- 81.3- 4.0 3.7---- 0.0------------
1961-06-18 19.2 24.3 9.3- 72.5- 4.7 1.0---- 0.0------------
1961-06-17 15.7 22.1 7.9- 75.5- 5.3 3.0---- 0.0------------
1961-06-16 14.4 18.2 7.8- 82.5- 7.7 3.3---- 0.0------------
493.3 ms

 

Źródłem pochodzenia danych jest Instytut Meteorologii i Gospodarki Wodnej – Państwowy Instytut Badawczy. Dane Instytutu Meteorologii i Gospodarki Wodnej – Państwowego Instytutu Badawczego zostały przetworzone.

Dane źródłowe można odnaleźć na stronie https://dane.imgw.pl